Time;durP1;ratioP1;P1;durP2;ratioP2;P2;SDS_P1;SDS_P2;PMS_P1;PMS_P2;Temp;Humidity;BMP_temperature;BMP_pressure;BME280_temperature;BME280_humidity;BME280_pressure;Samples;Min_cycle;Max_cycle;Signal;HPM_P1;HPM_P2
2022/11/07 00:01:56;;;;;;;4.80;2.00;;;13.80;99.90;;;;;;5023076;28;20212;-30
2022/11/07 00:04:26;;;;;;;6.10;2.00;;;13.70;99.90;;;;;;5022239;28;20200;-30
2022/11/07 00:06:55;;;;;;;4.30;1.87;;;13.70;99.90;;;;;;5025482;28;20193;-30
2022/11/07 00:09:25;;;;;;;3.77;1.80;;;13.70;99.90;;;;;;5024995;28;20221;-30
2022/11/07 00:11:53;;;;;;;6.03;2.10;;;13.70;99.90;;;;;;5025667;28;20227;-31
2022/11/07 00:14:20;;;;;;;5.37;1.80;;;13.70;99.90;;;;;;5026091;28;20239;-30
2022/11/07 00:16:51;;;;;;;3.97;1.90;;;13.70;99.90;;;;;;5024021;28;20201;-30
2022/11/07 00:19:24;;;;;;;5.23;1.90;;;13.70;99.90;;;;;;5023613;28;20219;-30
2022/11/07 00:21:57;;;;;;;5.07;1.93;;;13.70;99.90;;;;;;5024606;28;20204;-30
2022/11/07 00:24:24;;;;;;;6.43;1.80;;;13.70;99.90;;;;;;5024443;28;20646;-30
2022/11/07 00:26:51;;;;;;;4.07;2.00;;;13.70;99.90;;;;;;5021152;28;20295;-30
2022/11/07 00:29:21;;;;;;;5.23;2.20;;;13.70;99.90;;;;;;5022876;28;20197;-30
2022/11/07 00:31:49;;;;;;;6.70;1.90;;;13.70;99.90;;;;;;5023749;28;20217;-30
2022/11/07 00:34:16;;;;;;;6.03;2.13;;;13.70;99.90;;;;;;5025397;28;20586;-30
2022/11/07 00:36:45;;;;;;;6.00;2.10;;;13.70;99.90;;;;;;5024049;28;20282;-30
2022/11/07 00:39:12;;;;;;;4.67;1.97;;;13.70;99.90;;;;;;5024831;28;20217;-30
2022/11/07 00:41:40;;;;;;;7.63;2.17;;;13.70;99.90;;;;;;5033906;28;20655;-29
2022/11/07 00:44:07;;;;;;;5.53;2.10;;;13.70;99.90;;;;;;5024788;28;20604;-28
2022/11/07 00:46:36;;;;;;;6.90;2.37;;;13.70;99.90;;;;;;5033792;28;20227;-28
2022/11/07 00:49:03;;;;;;;7.70;2.43;;;13.80;99.90;;;;;;5032958;28;20736;-28
2022/11/07 00:51:35;;;;;;;5.63;1.90;;;13.80;99.90;;;;;;5024125;28;20212;-28
2022/11/07 00:54:06;;;;;;;6.27;2.00;;;13.80;99.90;;;;;;5025060;28;20665;-28
2022/11/07 00:56:33;;;;;;;5.53;2.17;;;13.80;99.90;;;;;;5024655;28;20208;-28
2022/11/07 00:59:02;;;;;;;9.83;2.23;;;13.70;99.90;;;;;;5022513;28;20556;-28
2022/11/07 01:01:33;;;;;;;5.13;2.00;;;13.70;99.90;;;;;;5034237;28;20204;-28
2022/11/07 01:06:50;;;;;;;8.50;2.10;;;13.80;99.90;;;;;;5021357;28;20201;-28
2022/11/07 01:09:22;;;;;;;5.93;2.67;;;13.80;99.90;;;;;;5018737;28;20217;-30
2022/11/07 01:11:49;;;;;;;5.57;2.00;;;13.80;99.90;;;;;;5020006;28;20216;-28
2022/11/07 01:14:22;;;;;;;5.23;1.80;;;13.80;99.90;;;;;;5023728;28;20327;-28
2022/11/07 01:16:50;;;;;;;8.97;2.00;;;13.80;99.90;;;;;;5022460;28;20296;-28
2022/11/07 01:19:18;;;;;;;6.97;2.00;;;13.80;99.90;;;;;;5023195;28;20216;-28
2022/11/07 01:21:45;;;;;;;5.93;2.00;;;13.80;99.90;;;;;;5016467;28;20201;-28
2022/11/07 01:24:15;;;;;;;6.50;1.90;;;13.80;99.90;;;;;;5026893;28;20288;-28
2022/11/07 01:26:46;;;;;;;8.90;2.37;;;13.80;99.90;;;;;;5024381;28;20240;-28
2022/11/07 01:29:15;;;;;;;4.93;2.37;;;13.80;99.90;;;;;;5029845;28;20204;-28
2022/11/07 01:31:43;;;;;;;15.07;2.63;;;13.80;99.90;;;;;;5028716;28;20205;-28
2022/11/07 01:34:10;;;;;;;7.67;2.33;;;13.90;99.90;;;;;;5036912;28;20212;-28
2022/11/07 01:36:38;;;;;;;6.37;1.97;;;13.90;99.90;;;;;;5042497;28;20201;-28
2022/11/07 01:39:05;;;;;;;8.80;2.33;;;13.90;99.90;;;;;;5029977;28;20254;-28
2022/11/07 01:41:35;;;;;;;7.07;2.17;;;13.90;99.90;;;;;;5026905;28;20205;-28
2022/11/07 01:44:08;;;;;;;9.30;2.47;;;13.90;99.90;;;;;;5029680;28;20211;-28
2022/11/07 01:46:43;;;;;;;7.97;2.40;;;14.00;99.90;;;;;;5030706;28;20213;-28
2022/11/07 01:49:28;;;;;;;9.47;2.10;;;13.90;99.90;;;;;;5040895;28;20235;-28
2022/11/07 01:51:58;;;;;;;8.70;2.33;;;13.90;99.90;;;;;;5027510;28;20219;-28
2022/11/07 01:54:32;;;;;;;10.27;2.00;;;14.00;99.90;;;;;;5027621;28;20660;-28
2022/11/07 01:57:05;;;;;;;9.53;2.60;;;14.00;99.90;;;;;;5037398;28;20201;-28
2022/11/07 01:59:35;;;;;;;8.43;2.43;;;14.00;99.90;;;;;;5012174;28;20228;-28
2022/11/07 02:02:03;;;;;;;10.03;2.27;;;14.00;99.90;;;;;;5023000;28;20779;-28
2022/11/07 02:04:32;;;;;;;10.07;2.23;;;14.00;99.90;;;;;;5027786;28;20203;-28
2022/11/07 02:07:12;;;;;;;6.60;2.33;;;14.00;99.90;;;;;;5026210;28;20575;-30
2022/11/07 02:09:43;;;;;;;9.00;2.13;;;14.00;99.90;;;;;;5027869;28;20221;-30
2022/11/07 02:12:10;;;;;;;11.90;2.33;;;14.00;99.90;;;;;;5036958;28;20197;-30
2022/11/07 02:14:37;;;;;;;5.93;2.77;;;14.00;99.90;;;;;;5018621;28;20320;-30
2022/11/07 02:17:04;;;;;;;6.70;2.20;;;14.00;99.90;;;;;;5032793;28;20204;-31
2022/11/07 02:19:50;;;;;;;8.63;2.30;;;14.00;99.90;;;;;;5030778;28;20717;-30
2022/11/07 02:22:44;;;;;;;11.40;2.30;;;14.00;99.90;;;;;;5029944;28;20204;-30
2022/11/07 02:25:14;;;;;;;11.47;2.87;;;14.00;99.90;;;;;;5031466;28;20208;-30
2022/11/07 02:27:43;;;;;;;9.77;2.33;;;14.00;99.90;;;;;;5028753;28;20735;-30
2022/11/07 02:30:14;;;;;;;6.10;1.90;;;14.00;99.90;;;;;;5027811;28;20211;-30
2022/11/07 02:32:41;;;;;;;10.47;2.73;;;14.10;99.90;;;;;;5023143;28;20203;-30
2022/11/07 02:35:30;;;;;;;7.93;2.47;;;14.00;99.90;;;;;;5027207;28;20209;-30
2022/11/07 02:37:57;;;;;;;5.83;2.47;;;14.00;99.90;;;;;;5008419;28;20213;-30
2022/11/07 02:40:29;;;;;;;9.47;2.70;;;14.00;99.90;;;;;;5025296;28;20213;-30
2022/11/07 02:42:58;;;;;;;7.00;2.27;;;14.00;99.90;;;;;;5035602;28;20737;-30
2022/11/07 02:45:39;;;;;;;9.23;2.00;;;14.00;99.90;;;;;;5043136;28;20208;-30
2022/11/07 02:48:11;;;;;;;7.47;2.07;;;14.00;99.90;;;;;;5030842;28;20718;-30
2022/11/07 02:50:39;;;;;;;7.33;2.00;;;14.00;99.90;;;;;;5011941;28;20315;-30
2022/11/07 02:53:06;;;;;;;11.87;2.83;;;14.00;99.90;;;;;;5025283;28;20216;-29
2022/11/07 02:55:34;;;;;;;13.03;3.10;;;14.00;99.90;;;;;;5031177;28;20189;-30
2022/11/07 02:58:01;;;;;;;8.73;2.40;;;14.00;99.90;;;;;;5026848;28;20295;-30
2022/11/07 03:00:28;;;;;;;10.20;2.37;;;14.00;99.90;;;;;;5025871;28;20228;-30
2022/11/07 03:02:55;;;;;;;8.70;2.27;;;14.00;99.90;;;;;;5025867;28;20311;-31
2022/11/07 03:05:23;;;;;;;7.23;2.43;;;14.00;99.90;;;;;;5026389;28;20209;-30
2022/11/07 03:07:50;;;;;;;9.60;2.50;;;14.00;99.90;;;;;;5047633;28;20556;-29
2022/11/07 03:10:17;;;;;;;11.00;2.47;;;14.00;99.90;;;;;;5026847;28;20296;-29
2022/11/07 03:12:45;;;;;;;9.67;2.80;;;14.00;99.90;;;;;;5037180;28;20246;-30
2022/11/07 03:15:12;;;;;;;10.23;2.60;;;14.00;99.90;;;;;;5045127;28;20204;-29
2022/11/07 03:17:43;;;;;;;11.27;2.60;;;14.00;99.90;;;;;;5039618;28;20216;-30
2022/11/07 03:20:12;;;;;;;11.47;2.33;;;14.00;99.90;;;;;;5026073;28;20416;-29
2022/11/07 03:22:44;;;;;;;10.93;2.33;;;13.90;99.90;;;;;;5018365;28;20209;-30
2022/11/07 03:25:14;;;;;;;6.80;2.10;;;13.90;99.90;;;;;;5012646;28;20605;-30
2022/11/07 03:27:47;;;;;;;10.60;2.00;;;14.00;99.90;;;;;;5018428;28;20207;-29
2022/11/07 03:30:15;;;;;;;10.90;2.27;;;14.00;99.90;;;;;;5024534;28;20630;-30
2022/11/07 03:32:42;;;;;;;11.80;2.70;;;14.00;99.90;;;;;;5035362;28;20712;-29
2022/11/07 03:35:10;;;;;;;8.17;1.83;;;13.90;99.90;;;;;;5041985;28;20738;-30
2022/11/07 03:37:37;;;;;;;13.57;2.73;;;14.00;99.90;;;;;;5025348;28;20308;-31
2022/11/07 03:40:07;;;;;;;9.07;2.50;;;14.00;99.90;;;;;;5026263;28;20231;-30
2022/11/07 03:42:38;;;;;;;12.17;2.53;;;14.00;99.90;;;;;;5028276;28;20210;-30
2022/11/07 03:45:07;;;;;;;7.30;2.10;;;14.00;99.90;;;;;;5028702;28;20224;-30
2022/11/07 03:47:35;;;;;;;11.37;2.13;;;14.00;99.90;;;;;;5024557;28;20238;-30
2022/11/07 03:50:03;;;;;;;10.27;2.40;;;14.00;99.90;;;;;;5009954;28;20206;-30
2022/11/07 03:52:33;;;;;;;9.27;1.90;;;14.00;99.90;;;;;;5012721;28;20211;-30
2022/11/07 03:55:00;;;;;;;7.97;2.00;;;14.00;99.90;;;;;;5022548;28;20475;-29
2022/11/07 03:57:27;;;;;;;12.23;2.80;;;14.00;99.90;;;;;;5023190;28;20216;-30
2022/11/07 03:59:56;;;;;;;9.20;2.17;;;14.00;99.90;;;;;;5026899;28;20213;-29
2022/11/07 04:02:24;;;;;;;12.00;2.30;;;14.00;99.90;;;;;;5025781;28;20299;-30
2022/11/07 04:04:51;;;;;;;10.53;2.67;;;14.00;99.90;;;;;;5021220;28;20699;-30
2022/11/07 04:07:18;;;;;;;12.27;3.30;;;14.00;99.90;;;;;;5021979;28;20592;-30
2022/11/07 04:09:45;;;;;;;11.17;2.80;;;14.00;99.90;;;;;;5038790;28;20204;-30
2022/11/07 04:17:46;;;;;;;8.73;2.77;;;14.00;99.90;;;;;;5035998;28;20721;-30
2022/11/07 04:20:13;;;;;;;8.90;2.23;;;14.00;99.90;;;;;;5026268;28;20319;-30
2022/11/07 04:22:41;;;;;;;8.10;2.13;;;14.10;99.90;;;;;;5019326;28;20535;-30
2022/11/07 04:25:08;;;;;;;7.10;2.30;;;14.10;99.90;;;;;;5023532;28;20233;-30
2022/11/07 04:27:41;;;;;;;10.10;2.07;;;14.10;99.90;;;;;;5013643;28;20197;-30
2022/11/07 04:30:22;;;;;;;9.90;2.40;;;14.10;99.90;;;;;;5024629;28;20202;-29
2022/11/07 04:32:57;;;;;;;6.93;2.37;;;14.10;99.90;;;;;;5040679;28;20197;-30
2022/11/07 04:35:28;;;;;;;7.33;1.80;;;14.10;99.90;;;;;;5024656;28;20224;-30
2022/11/07 04:37:55;;;;;;;8.07;2.50;;;14.10;99.90;;;;;;5024839;28;20284;-30
2022/11/07 04:40:25;;;;;;;8.90;2.00;;;14.10;99.90;;;;;;5041318;28;20247;-30
2022/11/07 04:42:55;;;;;;;6.23;1.90;;;14.20;99.90;;;;;;5043924;28;20615;-30
2022/11/07 04:45:22;;;;;;;12.63;2.57;;;14.20;99.90;;;;;;5034597;28;20306;-29
2022/11/07 04:47:52;;;;;;;8.80;2.00;;;14.20;99.90;;;;;;5032561;28;20241;-30
2022/11/07 04:50:20;;;;;;;9.80;2.73;;;14.20;99.90;;;;;;5046531;28;20220;-30
2022/11/07 04:52:47;;;;;;;15.57;2.43;;;14.20;99.90;;;;;;5033774;28;20689;-30
2022/11/07 04:55:23;;;;;;;8.40;2.20;;;14.30;99.90;;;;;;5025168;28;20240;-30
2022/11/07 04:57:50;;;;;;;10.77;2.80;;;14.20;99.90;;;;;;5024767;28;20304;-30
2022/11/07 05:00:19;;;;;;;8.97;2.30;;;14.30;99.90;;;;;;5016546;28;20216;-30
2022/11/07 05:02:46;;;;;;;10.47;2.47;;;14.30;99.90;;;;;;5025680;28;20652;-30
2022/11/07 05:05:15;;;;;;;11.70;2.50;;;14.30;99.90;;;;;;5033199;28;20615;-30
2022/11/07 05:07:45;;;;;;;11.50;2.63;;;14.30;99.90;;;;;;5042489;28;20287;-30
2022/11/07 05:10:22;;;;;;;10.47;2.17;;;14.30;99.90;;;;;;5024760;28;20665;-30
2022/11/07 05:12:49;;;;;;;14.43;2.97;;;14.30;99.90;;;;;;5025176;28;20212;-30
2022/11/07 05:15:18;;;;;;;8.33;2.03;;;14.30;99.90;;;;;;5024284;28;20287;-30
2022/11/07 05:17:45;;;;;;;8.67;2.43;;;14.30;99.90;;;;;;5023610;28;20295;-30
2022/11/07 05:20:29;;;;;;;9.00;2.27;;;14.40;99.90;;;;;;5024398;28;20213;-30
2022/11/07 05:23:13;;;;;;;9.83;2.60;;;14.30;99.90;;;;;;5006742;28;20227;-29
2022/11/07 05:25:42;;;;;;;8.93;2.70;;;14.40;99.90;;;;;;5025419;28;20204;-30
2022/11/07 05:28:14;;;;;;;13.13;2.70;;;14.40;99.90;;;;;;5025053;28;20292;-30
2022/11/07 05:30:43;;;;;;;13.03;2.53;;;14.40;99.90;;;;;;5023890;28;20207;-30
2022/11/07 05:33:14;;;;;;;12.67;2.33;;;14.40;99.90;;;;;;5026923;28;20753;-30
2022/11/07 05:35:43;;;;;;;9.37;2.77;;;14.40;99.90;;;;;;5024508;28;20212;-30
2022/11/07 05:38:11;;;;;;;10.70;2.13;;;14.40;99.90;;;;;;5023812;28;20201;-29
2022/11/07 05:40:39;;;;;;;12.30;2.63;;;14.50;99.90;;;;;;5037305;28;20598;-30
2022/11/07 05:43:09;;;;;;;9.63;2.37;;;14.40;99.90;;;;;;5041364;28;20194;-30
2022/11/07 05:45:40;;;;;;;10.30;2.67;;;14.40;99.90;;;;;;5021232;28;20671;-30
2022/11/07 05:48:16;;;;;;;8.73;2.50;;;14.40;99.90;;;;;;5024485;28;20438;-30
2022/11/07 05:50:43;;;;;;;10.70;2.50;;;14.40;99.90;;;;;;5033061;28;20220;-30
2022/11/07 05:53:12;;;;;;;13.10;2.70;;;14.40;99.90;;;;;;5034821;28;20193;-30
2022/11/07 05:55:40;;;;;;;11.93;2.77;;;14.40;99.90;;;;;;5025197;28;20262;-30
2022/11/07 05:58:09;;;;;;;8.70;2.17;;;14.40;99.90;;;;;;5044166;28;20212;-30
2022/11/07 06:00:36;;;;;;;12.77;2.57;;;14.40;99.90;;;;;;5021090;28;20696;-30
2022/11/07 06:03:04;;;;;;;11.37;2.40;;;14.40;99.90;;;;;;5026204;28;20197;-30
2022/11/07 06:05:31;;;;;;;15.80;2.73;;;14.50;99.90;;;;;;5034603;28;20199;-30
2022/11/07 06:07:59;;;;;;;11.27;2.10;;;14.40;99.90;;;;;;5041359;28;20212;-30
2022/11/07 06:10:26;;;;;;;9.47;2.67;;;14.40;99.90;;;;;;5033507;28;20197;-30
2022/11/07 06:12:58;;;;;;;10.23;2.53;;;14.50;99.90;;;;;;5034355;28;20287;-30
2022/11/07 06:15:31;;;;;;;11.30;3.17;;;14.50;99.90;;;;;;5029282;28;20243;-30
2022/11/07 06:18:00;;;;;;;11.07;2.53;;;14.50;99.90;;;;;;5027360;28;20768;-30
2022/11/07 06:20:30;;;;;;;10.43;2.73;;;14.40;99.90;;;;;;5035443;28;20274;-30
2022/11/07 06:22:58;;;;;;;11.50;2.20;;;14.40;99.90;;;;;;5037810;28;20270;-30
2022/11/07 06:25:27;;;;;;;7.07;2.10;;;14.50;99.90;;;;;;5028375;28;20203;-30
2022/11/07 06:28:03;;;;;;;9.87;2.63;;;14.50;99.90;;;;;;5028836;28;20296;-30
2022/11/07 06:30:33;;;;;;;10.50;2.10;;;14.50;99.90;;;;;;5025680;28;20228;-30
2022/11/07 06:33:10;;;;;;;8.00;2.50;;;14.50;99.90;;;;;;5015412;28;20216;-30
2022/11/07 06:35:40;;;;;;;12.27;2.07;;;14.50;99.90;;;;;;5033076;28;20197;-30
2022/11/07 06:38:09;;;;;;;10.53;2.40;;;14.60;99.90;;;;;;5019814;28;20245;-30
2022/11/07 06:40:37;;;;;;;9.83;2.03;;;14.60;99.90;;;;;;5026370;28;20295;-30
2022/11/07 06:43:06;;;;;;;9.50;2.03;;;14.60;99.90;;;;;;5039111;28;20197;-30
2022/11/07 06:45:36;;;;;;;8.27;2.80;;;14.60;99.90;;;;;;5022083;28;20193;-30
2022/11/07 06:48:04;;;;;;;9.23;2.20;;;14.60;99.90;;;;;;5032055;28;20236;-30
2022/11/07 06:50:32;;;;;;;10.87;2.63;;;14.70;99.90;;;;;;5018001;28;20232;-30
2022/11/07 06:53:10;;;;;;;9.67;2.37;;;14.60;99.90;;;;;;5019229;28;20818;-27
2022/11/07 06:55:38;;;;;;;10.47;2.40;;;14.70;99.90;;;;;;5018955;28;20205;-28
2022/11/07 06:58:05;;;;;;;8.77;2.50;;;14.70;99.90;;;;;;5023622;28;20308;-28
2022/11/07 07:00:34;;;;;;;8.47;2.20;;;14.70;99.90;;;;;;5012884;28;20921;-28
2022/11/07 07:03:02;;;;;;;12.07;3.03;;;14.70;99.90;;;;;;5036136;28;20275;-29
2022/11/07 07:05:31;;;;;;;10.50;2.50;;;14.70;99.90;;;;;;5025674;28;20236;-30
2022/11/07 07:07:59;;;;;;;13.13;2.47;;;14.80;99.90;;;;;;5024016;28;20231;-30
2022/11/07 07:10:26;;;;;;;6.13;2.17;;;14.70;99.90;;;;;;5009588;28;20197;-30
2022/11/07 07:12:53;;;;;;;12.13;2.47;;;14.80;99.90;;;;;;5018643;28;20215;-30
2022/11/07 07:15:20;;;;;;;8.87;2.57;;;14.80;99.90;;;;;;5028067;28;20651;-30
2022/11/07 07:17:48;;;;;;;11.87;2.17;;;14.80;99.90;;;;;;5028907;28;20201;-30
2022/11/07 07:20:15;;;;;;;11.47;2.47;;;14.80;99.90;;;;;;5026992;28;20664;-30
2022/11/07 07:22:46;;;;;;;8.57;2.20;;;14.80;99.90;;;;;;5022634;28;20219;-30
2022/11/07 07:25:23;;;;;;;7.87;2.30;;;14.80;99.90;;;;;;5025588;28;20268;-30
2022/11/07 07:27:50;;;;;;;10.67;2.47;;;14.80;99.90;;;;;;5022108;28;20215;-30
2022/11/07 07:30:17;;;;;;;10.37;2.37;;;14.80;99.90;;;;;;5006736;28;20232;-30
2022/11/07 07:32:44;;;;;;;11.33;2.70;;;14.80;99.90;;;;;;5007717;28;20226;-30
2022/11/07 07:35:11;;;;;;;11.40;2.47;;;14.80;99.90;;;;;;5008785;28;20201;-30
2022/11/07 07:37:38;;;;;;;9.60;2.40;;;14.90;99.90;;;;;;5015625;28;20959;-30
2022/11/07 07:40:09;;;;;;;10.13;2.77;;;14.90;99.90;;;;;;5029069;28;20213;-30
2022/11/07 07:42:41;;;;;;;14.37;2.80;;;14.90;99.90;;;;;;5028236;28;20755;-30
2022/11/07 07:45:10;;;;;;;6.47;2.00;;;14.90;99.90;;;;;;5027111;28;20197;-30
2022/11/07 07:47:37;;;;;;;10.37;2.30;;;14.90;99.90;;;;;;5020415;28;20607;-30
2022/11/07 07:50:07;;;;;;;9.27;1.83;;;14.90;99.90;;;;;;5030252;28;20204;-30
2022/11/07 07:52:34;;;;;;;8.00;2.40;;;14.90;99.90;;;;;;5028903;28;20240;-30
2022/11/07 07:55:01;;;;;;;10.13;2.13;;;15.00;99.90;;;;;;5025254;28;20276;-30
2022/11/07 07:57:29;;;;;;;7.27;1.90;;;15.00;99.90;;;;;;5025545;28;20205;-29
2022/11/07 07:59:56;;;;;;;9.40;2.20;;;15.00;99.90;;;;;;5020907;28;20220;-29
2022/11/07 08:02:23;;;;;;;7.83;2.00;;;15.00;99.90;;;;;;5015819;28;20197;-30
2022/11/07 08:04:52;;;;;;;11.37;2.30;;;15.00;99.90;;;;;;5024020;28;20193;-32
2022/11/07 08:07:19;;;;;;;9.03;2.47;;;15.00;99.90;;;;;;5020216;28;20823;-32
2022/11/07 08:09:46;;;;;;;8.17;2.10;;;15.00;99.90;;;;;;5018091;28;20197;-32
2022/11/07 08:12:14;;;;;;;9.33;2.20;;;15.10;99.90;;;;;;5023775;28;20304;-32
2022/11/07 08:14:41;;;;;;;8.07;2.53;;;15.10;99.90;;;;;;5025560;28;20287;-32
2022/11/07 08:17:10;;;;;;;10.70;2.47;;;15.10;99.90;;;;;;5037848;28;20216;-32
2022/11/07 08:19:41;;;;;;;11.77;2.43;;;15.10;99.90;;;;;;5030492;28;20691;-32
2022/11/07 08:22:08;;;;;;;8.93;2.43;;;15.10;99.90;;;;;;5021850;28;20275;-32
2022/11/07 08:24:35;;;;;;;7.70;2.07;;;15.20;99.90;;;;;;5022528;28;20288;-32
2022/11/07 08:27:02;;;;;;;12.17;2.97;;;15.20;99.90;;;;;;5026684;28;20210;-32
2022/11/07 08:29:29;;;;;;;10.60;2.20;;;15.20;99.90;;;;;;5021703;28;20675;-33
2022/11/07 08:31:57;;;;;;;11.23;2.60;;;15.20;99.90;;;;;;5026149;28;20224;-32
2022/11/07 08:34:24;;;;;;;11.20;2.80;;;15.20;99.90;;;;;;5033451;28;20239;-32
2022/11/07 08:36:51;;;;;;;16.47;2.80;;;15.30;99.90;;;;;;5021313;28;20683;-33
2022/11/07 08:39:18;;;;;;;13.93;2.53;;;15.30;99.90;;;;;;5043137;28;20196;-32
2022/11/07 08:41:45;;;;;;;13.93;2.73;;;15.40;99.90;;;;;;5024402;28;20249;-32
2022/11/07 08:44:15;;;;;;;10.73;2.73;;;15.40;99.90;;;;;;5023782;28;20489;-32
2022/11/07 08:46:42;;;;;;;13.37;2.70;;;15.40;99.90;;;;;;5034931;28;20464;-32
2022/11/07 08:49:09;;;;;;;9.03;2.40;;;15.50;99.90;;;;;;5027439;28;20691;-32
2022/11/07 08:51:37;;;;;;;15.77;3.53;;;15.50;99.90;;;;;;5033525;28;20256;-32
2022/11/07 08:54:05;;;;;;;14.10;2.90;;;15.50;99.90;;;;;;5032728;28;20623;-32
2022/11/07 08:56:33;;;;;;;14.30;2.87;;;15.50;99.90;;;;;;5043648;28;20653;-32
2022/11/07 08:59:00;;;;;;;11.60;2.70;;;15.60;99.90;;;;;;5044722;28;20208;-32
2022/11/07 09:01:27;;;;;;;14.30;2.47;;;15.60;99.90;;;;;;5011094;28;20232;-32
2022/11/07 09:03:55;;;;;;;12.80;3.10;;;15.60;99.90;;;;;;5014875;28;20247;-32
2022/11/07 09:06:24;;;;;;;10.23;2.80;;;15.60;99.90;;;;;;5022674;28;20548;-32
2022/11/07 09:08:52;;;;;;;9.00;2.90;;;15.70;99.90;;;;;;5023804;28;20223;-32
2022/11/07 09:11:20;;;;;;;10.83;2.80;;;15.70;99.90;;;;;;5036657;28;20251;-30
2022/11/07 09:13:48;;;;;;;16.00;3.17;;;15.80;99.90;;;;;;5038212;28;20204;-31
2022/11/07 09:16:21;;;;;;;10.07;2.80;;;15.80;99.90;;;;;;5044867;28;20632;-30
2022/11/07 09:18:52;;;;;;;19.20;3.20;;;15.80;99.90;;;;;;5045212;28;20220;-30
2022/11/07 09:21:19;;;;;;;12.80;2.53;;;15.80;99.90;;;;;;5035878;28;20212;-30
2022/11/07 09:23:52;;;;;;;10.00;2.90;;;15.80;99.90;;;;;;5013575;28;20190;-33
2022/11/07 09:26:22;;;;;;;13.33;2.80;;;15.80;99.90;;;;;;5023670;28;20215;-30
2022/11/07 09:28:49;;;;;;;11.30;3.27;;;15.90;99.90;;;;;;5005336;28;20209;-30
2022/11/07 09:31:21;;;;;;;12.73;3.73;;;15.90;99.90;;;;;;5005312;28;20743;-30
2022/11/07 09:33:48;;;;;;;10.97;2.70;;;16.00;99.90;;;;;;5012988;28;20200;-29
2022/11/07 09:36:15;;;;;;;13.97;2.90;;;16.00;99.90;;;;;;5034591;28;20304;-30
2022/11/07 09:38:42;;;;;;;12.07;3.23;;;16.00;99.90;;;;;;5036533;28;20209;-29
2022/11/07 09:41:31;;;;;;;12.20;3.07;;;16.00;99.90;;;;;;5017230;28;20215;-32
2022/11/07 09:44:15;;;;;;;11.93;2.73;;;16.10;99.90;;;;;;5024223;28;20702;-32
2022/11/07 09:46:51;;;;;;;10.90;2.57;;;16.10;99.90;;;;;;5030128;28;20563;-32
2022/11/07 09:49:33;;;;;;;12.00;2.83;;;16.20;99.90;;;;;;5019146;28;20262;-32
2022/11/07 09:52:27;;;;;;;13.97;2.83;;;16.10;99.90;;;;;;5022433;28;20239;-32
2022/11/07 09:55:26;;;;;;;13.03;2.57;;;16.20;99.90;;;;;;5030448;28;20211;-32
2022/11/07 09:57:59;;;;;;;15.63;2.83;;;16.20;99.90;;;;;;5030594;28;20244;-32
2022/11/07 10:00:32;;;;;;;13.70;3.03;;;16.20;99.90;;;;;;5034954;28;20778;-32
2022/11/07 10:03:01;;;;;;;8.87;2.70;;;16.30;99.90;;;;;;5028907;28;20221;-32
2022/11/07 10:05:51;;;;;;;11.77;2.67;;;16.30;99.90;;;;;;5027874;28;20275;-32
2022/11/07 10:08:27;;;;;;;11.60;2.70;;;16.40;99.90;;;;;;5012694;28;20934;-32
2022/11/07 10:11:05;;;;;;;14.70;3.60;;;16.40;99.90;;;;;;5032948;28;20739;-32
2022/11/07 10:14:00;;;;;;;13.63;3.37;;;16.50;99.90;;;;;;5023856;28;20216;-32
2022/11/07 10:16:55;;;;;;;9.93;3.07;;;16.50;99.90;;;;;;5028655;28;20459;-32
2022/11/07 10:19:45;;;;;;;9.97;2.70;;;16.60;99.90;;;;;;5035269;28;20239;-32
2022/11/07 10:22:22;;;;;;;14.43;3.40;;;16.60;99.90;;;;;;5042275;28;20217;-31
2022/11/07 10:25:04;;;;;;;12.07;2.87;;;16.60;99.90;;;;;;5027227;28;20259;-31
2022/11/07 10:27:33;;;;;;;12.80;2.80;;;16.70;99.90;;;;;;5047952;28;20188;-31
2022/11/07 10:30:00;;;;;;;11.10;2.40;;;16.70;99.90;;;;;;5038222;28;20222;-31
2022/11/07 10:32:46;;;;;;;9.30;2.57;;;16.70;99.90;;;;;;5052490;28;20208;-31
2022/11/07 10:35:26;;;;;;;10.43;3.17;;;16.80;99.90;;;;;;5029547;28;20652;-31
2022/11/07 10:37:57;;;;;;;14.90;2.60;;;16.80;99.90;;;;;;5008041;28;20606;-31
2022/11/07 10:40:32;;;;;;;9.53;2.47;;;16.80;99.90;;;;;;5018845;28;20552;-31
2022/11/07 10:43:02;;;;;;;15.63;3.23;;;16.80;99.90;;;;;;5046463;28;20859;-31
2022/11/07 10:45:30;;;;;;;12.20;2.50;;;16.80;99.90;;;;;;5040196;28;20231;-31
2022/11/07 10:48:01;;;;;;;10.50;2.67;;;16.90;99.90;;;;;;5039450;28;20234;-31
2022/11/07 10:50:29;;;;;;;11.83;2.67;;;16.90;99.90;;;;;;5031836;28;20626;-31
2022/11/07 10:53:08;;;;;;;12.73;2.27;;;17.00;99.90;;;;;;5028301;28;20205;-31
2022/11/07 10:55:44;;;;;;;12.33;2.70;;;17.00;99.90;;;;;;5010381;28;20189;-31
2022/11/07 10:58:26;;;;;;;8.77;2.50;;;17.10;99.90;;;;;;5026315;28;20212;-31
2022/11/07 11:00:56;;;;;;;8.90;2.37;;;17.10;99.90;;;;;;5025794;28;20600;-31
2022/11/07 11:03:28;;;;;;;8.97;2.23;;;17.20;99.90;;;;;;5042287;28;20200;-31
2022/11/07 11:06:30;;;;;;;8.27;2.10;;;17.20;99.90;;;;;;5022798;28;20254;-31
2022/11/07 11:09:10;;;;;;;9.23;2.03;;;17.20;99.90;;;;;;5006236;28;20473;-32
2022/11/07 11:11:38;;;;;;;9.33;2.03;;;17.20;99.90;;;;;;5022923;28;20294;-31
2022/11/07 11:14:12;;;;;;;8.80;2.30;;;17.30;99.90;;;;;;5047115;28;20501;-31
2022/11/07 11:16:43;;;;;;;12.67;2.30;;;17.30;99.90;;;;;;5033379;28;20213;-31
2022/11/07 11:19:24;;;;;;;8.57;2.40;;;17.40;99.90;;;;;;5037933;28;20213;-33
2022/11/07 11:21:54;;;;;;;24.63;5.57;;;17.40;99.90;;;;;;5012005;28;20236;-31
2022/11/07 11:24:36;;;;;;;17.37;3.77;;;17.40;99.90;;;;;;5027066;28;20213;-30
2022/11/07 11:27:22;;;;;;;26.70;3.97;;;17.40;99.90;;;;;;5025256;28;20702;-31
2022/11/07 11:30:19;;;;;;;14.23;2.60;;;17.40;99.90;;;;;;5042373;28;21025;-31
2022/11/07 11:33:02;;;;;;;8.60;2.23;;;17.40;99.90;;;;;;5025867;28;20212;-32
2022/11/07 11:35:48;;;;;;;13.33;2.60;;;17.50;99.90;;;;;;5020635;28;20781;-31
2022/11/07 11:38:20;;;;;;;7.80;2.30;;;17.50;99.90;;;;;;5023003;28;20247;-31
2022/11/07 11:41:03;;;;;;;8.73;2.40;;;17.50;99.90;;;;;;5035723;28;20220;-31
2022/11/07 11:43:49;;;;;;;9.37;2.13;;;17.50;99.90;;;;;;5017284;28;20194;-31
2022/11/07 11:46:46;;;;;;;9.50;2.40;;;17.40;99.90;;;;;;5009767;28;20220;-31
2022/11/07 11:49:41;;;;;;;9.82;2.63;;;17.40;99.90;;;;;;5035603;28;20228;-31
2022/11/07 11:52:21;;;;;;;11.77;2.40;;;17.50;99.90;;;;;;5028687;28;20604;-31
2022/11/07 11:54:51;;;;;;;9.17;2.23;;;17.50;99.90;;;;;;5021378;28;20232;-31
2022/11/07 11:57:39;;;;;;;7.17;1.77;;;17.40;99.90;;;;;;5018578;28;20620;-31
2022/11/07 12:00:13;;;;;;;6.47;1.93;;;17.40;99.90;;;;;;5010505;28;20296;-32
2022/11/07 12:02:58;;;;;;;9.27;2.20;;;17.40;99.90;;;;;;5040138;28;20716;-31
2022/11/07 12:05:37;;;;;;;11.60;2.53;;;17.40;99.90;;;;;;5030449;28;20282;-31
2022/11/07 12:08:26;;;;;;;7.30;2.03;;;17.40;99.90;;;;;;5042176;28;20302;-31
2022/11/07 12:11:21;;;;;;;7.70;2.07;;;17.40;99.90;;;;;;5026218;28;20703;-31
2022/11/07 12:14:04;;;;;;;8.73;2.17;;;17.40;99.90;;;;;;5025354;28;20208;-31
2022/11/07 12:16:45;;;;;;;10.30;2.37;;;17.30;99.90;;;;;;5025887;28;20322;-31
2022/11/07 12:19:50;;;;;;;7.70;1.67;;;17.30;99.90;;;;;;5030080;28;20262;-31
2022/11/07 12:22:37;;;;;;;8.80;2.33;;;17.30;99.90;;;;;;5042679;28;20212;-31
2022/11/07 12:25:10;;;;;;;6.93;1.70;;;17.40;99.90;;;;;;5046087;28;20196;-31
2022/11/07 12:27:59;;;;;;;11.40;2.33;;;17.40;99.90;;;;;;5016780;28;20770;-31
2022/11/07 12:30:39;;;;;;;7.03;2.13;;;17.40;99.90;;;;;;5013537;28;20709;-31
2022/11/07 12:33:22;;;;;;;9.45;2.47;;;17.40;99.90;;;;;;5028192;28;20715;-30
2022/11/07 12:35:51;;;;;;;8.50;2.27;;;17.50;99.90;;;;;;5015617;28;20213;-31
2022/11/07 12:38:41;;;;;;;8.43;1.97;;;17.50;99.90;;;;;;5017191;28;20201;-31
2022/11/07 12:41:26;;;;;;;5.20;1.57;;;17.60;99.90;;;;;;5007467;28;20614;-31
2022/11/07 12:43:59;;;;;;;7.03;2.00;;;17.60;99.90;;;;;;5015300;28;20192;-31
2022/11/07 12:46:43;;;;;;;11.20;2.30;;;17.60;99.90;;;;;;5026721;28;20215;-31
2022/11/07 12:49:25;;;;;;;9.03;2.47;;;17.60;99.90;;;;;;5031723;28;20319;-31
2022/11/07 12:52:30;;;;;;;10.97;2.30;;;17.60;99.90;;;;;;5017669;28;20221;-31
2022/11/07 12:55:18;;;;;;;9.03;2.53;;;17.70;99.90;;;;;;5008894;28;20656;-31
2022/11/07 12:57:49;;;;;;;13.33;2.53;;;17.70;99.90;;;;;;5033594;28;20301;-31
2022/11/07 13:00:27;;;;;;;12.00;2.07;;;17.70;99.90;;;;;;5045404;28;20239;-31
2022/11/07 13:03:34;;;;;;;12.88;2.45;;;17.70;99.90;;;;;;5045168;28;20240;-31
2022/11/07 13:06:14;;;;;;;10.38;2.10;;;17.70;99.90;;;;;;5033445;28;20196;-31
2022/11/07 13:08:57;;;;;;;8.30;2.10;;;17.70;99.90;;;;;;5019360;28;20214;-31
2022/11/07 13:11:33;;;;;;;8.60;2.40;;;17.80;99.90;;;;;;5021860;28;20196;-31
2022/11/07 13:14:21;;;;;;;8.48;2.53;;;17.80;99.90;;;;;;5005986;28;20570;-31
2022/11/07 13:17:14;;;;;;;7.47;1.80;;;17.80;99.90;;;;;;5018773;28;20209;-31
2022/11/07 13:20:04;;;;;;;10.13;2.43;;;17.80;99.90;;;;;;5036327;28;21060;-31